Gerd Maersk — OYGM2 — position and weather

sailwx.info

Track history (hours):
 
Tides and Currents Weather Stations Pressure Air Temp Water Temp Dewpoint Dewpoint Depression Visibility Wind Speed Wind Dir Waves Ship Positions

Gerd Maersk

Last reported at 2017-Aug-17 02:36 UTC. Time now 2017-Aug-19 03:43 UTC.
Position N 35°16' E 022°25'.

Length 367 m; draft 14 m.

Type: Ship (hazmat cat A). MMSI: 220415000.

Date/timePositionNaut miles runAvg speedWind from/ knotsBaromVisibWave heightAir tempDewpointWater temp
2017-Aug-17 02:36N 35°16' E 022°25'32715.3
2017-Aug-16 05:11N 37°32' E 016°16'1619.2
2017-Aug-16 04:21N 37°39' E 015°57'719.1
2017-Aug-16 03:58N 37°43' E 015°50'919.2
2017-Aug-16 03:29N 37°48' E 015°40'918.7
2017-Aug-16 03:00N 37°55' E 015°33'918.5
2017-Aug-16 02:30N 38°05' E 015°34'816.1
2017-Aug-16 02:00N 38°12' E 015°36'817.0
2017-Aug-16 01:30N 38°19' E 015°42'816.8
2017-Aug-16 01:00N 38°26' E 015°49'4 7.6
2017-Aug-16 00:29N 38°27' E 015°54'1 2.2
2017-Aug-15 23:56N 38°28' E 015°55'0 0.0
2017-Aug-15 23:29N 38°28' E 015°55'0 0.0
2017-Aug-15 22:56N 38°28' E 015°55'0 0.0
2017-Aug-15 22:20N 38°28' E 015°55'0 0.0
2017-Aug-15 21:50N 38°28' E 015°55'0 0.0
2017-Aug-15 21:26N 38°28' E 015°55'0 0.0
2017-Aug-15 20:56N 38°28' E 015°55'0 0.0
2017-Aug-15 20:23N 38°28' E 015°55'0 0.0
2017-Aug-15 19:53N 38°28' E 015°55'0 0.0
2017-Aug-15 19:23N 38°28' E 015°55'0 0.0
2017-Aug-15 18:56N 38°28' E 015°55'0 0.0
2017-Aug-15 17:23N 38°28' E 015°55'0 0.0
2017-Aug-15 16:59N 38°28' E 015°55'0 0.0
2017-Aug-15 16:29N 38°28' E 015°55'0 0.0
2017-Aug-15 15:56N 38°28' E 015°55'0 0.0
2017-Aug-15 15:20N 38°28' E 015°55'0 0.0
2017-Aug-15 14:59N 38°28' E 015°55'0 0.0
2017-Aug-15 14:23N 38°28' E 015°55'0 0.0
2017-Aug-15 13:56N 38°28' E 015°55'0 0.0
2017-Aug-15 13:11N 38°28' E 015°55'0 0.0
2017-Aug-15 12:50N 38°28' E 015°55'0 0.0
2017-Aug-15 12:23N 38°28' E 015°55'0 0.0
2017-Aug-15 11:41N 38°28' E 015°55'0 0.0
2017-Aug-15 11:26N 38°28' E 015°55'0 0.0
2017-Aug-15 10:56N 38°28' E 015°55'0 0.0
2017-Aug-15 10:26N 38°28' E 015°55'1 1.9
2017-Aug-15 10:00N 38°27' E 015°54'1 2.7
2017-Aug-15 09:30N 38°27' E 015°52'1 2.7
2017-Aug-15 09:00N 38°28' E 015°51'0 0.7
2017-Aug-15 08:30N 38°28' E 015°51'1 1.3
2017-Aug-15 08:00N 38°27' E 015°51'4 8.6
2017-Aug-15 07:30N 38°24' E 015°48'5 9.1
2017-Aug-15 07:00N 38°20' E 015°45'611.6
2017-Aug-15 06:30N 38°15' E 015°40'713.5
2017-Aug-15 06:01N 38°09' E 015°37'510.9
2017-Aug-15 05:30N 38°04' E 015°35'510.0
2017-Aug-15 05:00N 37°59' E 015°36'510.3
2017-Aug-15 04:30N 37°54' E 015°39'611.4
2017-Aug-15 04:00N 37°51' E 015°45'611.1
2017-Aug-15 03:30N 37°51' E 015°52'611.5
2017-Aug-15 02:57N 37°51' E 015°60'40211.0
2017-Aug-13 14:26N 44°24' E 014°12'715.6
2017-Aug-13 14:01N 44°31' E 014°09'816.3
2017-Aug-13 13:30N 44°39' E 014°09'815.7
2017-Aug-13 13:00N 44°47' E 014°09'3014.8
2017-Aug-13 10:58N 45°16' E 014°22'22 1.1
2017-Aug-12 15:29N 44°55' E 014°12'816.8
2017-Aug-12 15:00N 44°48' E 014°06'816.7
2017-Aug-12 14:30N 44°42' E 013°58'917.0
2017-Aug-12 14:00N 44°44' E 013°46'917.9
2017-Aug-12 13:30N 44°50' E 013°38'917.6
2017-Aug-12 13:00N 44°56' E 013°29'917.2
2017-Aug-12 12:30N 45°01' E 013°19'816.9
2017-Aug-12 12:00N 45°05' E 013°08'916.8
2017-Aug-12 11:29N 45°14' E 013°05'817.1
2017-Aug-12 11:00N 45°21' E 013°02'815.6
2017-Aug-12 10:31N 45°29' E 013°06'714.4
2017-Aug-12 10:00N 45°32' E 013°15'714.2
2017-Aug-12 09:30N 45°35' E 013°24'714.2
2017-Aug-12 09:00N 45°38' E 013°33'612.1
2017-Aug-12 08:30N 45°39' E 013°42'3 4.8
2017-Aug-12 07:52N 45°38' E 013°46'0 0.0
2017-Aug-12 07:30N 45°38' E 013°46'0 0.0
2017-Aug-12 07:00N 45°38' E 013°46'0 0.0
2017-Aug-12 06:31N 45°38' E 013°46'0 0.0
2017-Aug-12 06:01N 45°38' E 013°46'0 0.0
2017-Aug-12 05:31N 45°38' E 013°46'0 0.0
2017-Aug-12 04:54N 45°38' E 013°46'0 0.0
2017-Aug-12 04:25N 45°38' E 013°46'0 0.0
2017-Aug-12 03:58N 45°38' E 013°46'0 0.0
2017-Aug-12 03:30N 45°38' E 013°46'0 0.0
2017-Aug-12 03:01N 45°38' E 013°46'0 0.0
2017-Aug-12 02:27N 45°38' E 013°46'0 0.0
2017-Aug-12 02:00N 45°38' E 013°46'0 0.0
2017-Aug-12 01:31N 45°38' E 013°46'0 0.0
2017-Aug-12 01:00N 45°38' E 013°46'0 0.0
2017-Aug-12 00:31N 45°38' E 013°46'0 0.0
2017-Aug-11 23:54N 45°38' E 013°46'0 0.0
2017-Aug-11 23:31N 45°38' E 013°46'0 0.0
2017-Aug-11 22:49N 45°38' E 013°46'0 0.0
2017-Aug-11 22:25N 45°38' E 013°46'0 0.0
2017-Aug-11 21:57N 45°38' E 013°46'0 0.0
2017-Aug-11 21:31N 45°38' E 013°46'0 0.0
2017-Aug-11 21:01N 45°38' E 013°46'0 0.0
2017-Aug-11 20:30N 45°38' E 013°46'0 0.0
2017-Aug-11 20:00N 45°38' E 013°46'0 0.0
2017-Aug-11 19:30N 45°38' E 013°46'0 0.0
2017-Aug-11 19:00N 45°38' E 013°46'0 0.0
2017-Aug-11 18:31N 45°38' E 013°46'0 0.0
2017-Aug-11 17:55N 45°38' E 013°46'0 0.0
2017-Aug-11 17:22N 45°38' E 013°46'0 0.0
2017-Aug-11 16:57N 45°38' E 013°46'0 0.0
2017-Aug-11 16:28N 45°38' E 013°46'0 0.0
2017-Aug-11 15:57N 45°38' E 013°46'0 0.0
2017-Aug-11 15:30N 45°38' E 013°46'0 0.0
2017-Aug-11 15:01N 45°38' E 013°46'0 0.0
2017-Aug-11 14:00N 45°38' E 013°46'0 0.0
2017-Aug-11 13:30N 45°38' E 013°46'0 0.0
2017-Aug-11 13:00N 45°38' E 013°46'0 0.0
2017-Aug-11 12:27N 45°38' E 013°46'0 0.0
2017-Aug-11 12:01N 45°38' E 013°46'0 0.0
2017-Aug-11 11:31N 45°38' E 013°46'0 0.0
2017-Aug-11 11:01N 45°38' E 013°46'0 0.0
2017-Aug-11 10:31N 45°38' E 013°46'0 0.0
2017-Aug-11 10:00N 45°38' E 013°46'0 0.0
2017-Aug-11 09:31N 45°38' E 013°46'0 0.0
2017-Aug-11 09:01N 45°38' E 013°46'0 0.0
2017-Aug-11 08:30N 45°38' E 013°46'0 0.0
2017-Aug-11 07:57N 45°38' E 013°46'0 0.0
2017-Aug-11 07:31N 45°38' E 013°46'0 0.0
2017-Aug-11 06:58N 45°38' E 013°46'0 0.0
2017-Aug-11 06:30N 45°38' E 013°46'0 0.0
2017-Aug-11 06:01N 45°38' E 013°46'0 0.0
2017-Aug-11 05:25N 45°38' E 013°46'0 0.0
2017-Aug-11 05:01N 45°38' E 013°46'0 0.0
2017-Aug-11 04:28N 45°38' E 013°46'0 0.0
2017-Aug-11 04:00N 45°38' E 013°46'0 0.0
2017-Aug-11 03:30N 45°38' E 013°46'0 0.0
2017-Aug-11 03:00N 45°38' E 013°46'0 0.0
2017-Aug-11 02:28N 45°38' E 013°46'0 0.0
2017-Aug-11 01:58N 45°38' E 013°46'0 0.0
2017-Aug-11 01:30N 45°38' E 013°46'0 0.0
2017-Aug-11 01:00N 45°38' E 013°46'0 0.0
2017-Aug-11 00:21N 45°38' E 013°46'0 0.0
2017-Aug-11 00:00N 45°38' E 013°46'0 0.0
2017-Aug-10 23:28N 45°38' E 013°46'0 0.0
2017-Aug-10 22:57N 45°38' E 013°46'0 0.0
2017-Aug-10 22:31N 45°38' E 013°46'0 0.0
2017-Aug-10 22:01N 45°38' E 013°46'0 0.0
2017-Aug-10 21:30N 45°38' E 013°46'0 0.0
2017-Aug-10 20:58N 45°38' E 013°46'0 0.0
2017-Aug-10 20:31N 45°38' E 013°46'0 0.0
2017-Aug-10 20:00N 45°38' E 013°46'0 0.0
2017-Aug-10 19:31N 45°38' E 013°46'0 0.0
2017-Aug-10 19:00N 45°38' E 013°46'0 0.0
2017-Aug-10 18:27N 45°38' E 013°46'0 0.0
2017-Aug-10 17:51N 45°38' E 013°46'0 0.0
2017-Aug-10 17:12N 45°38' E 013°46'0 0.0
2017-Aug-10 17:01N 45°38' E 013°46'0 0.0
2017-Aug-10 16:09N 45°38' E 013°46'0 0.0
2017-Aug-10 15:40N 45°38' E 013°46'0 0.0
2017-Aug-10 15:31N 45°38' E 013°46'0 0.0
2017-Aug-10 14:58N 45°38' E 013°46'0 0.0
2017-Aug-10 14:27N 45°38' E 013°46'0 0.0
2017-Aug-10 13:42N 45°38' E 013°46'0 0.0
2017-Aug-10 13:30N 45°38' E 013°46'0 0.0
2017-Aug-10 13:01N 45°38' E 013°46'0 0.0
2017-Aug-10 12:31N 45°38' E 013°46'0 0.0
2017-Aug-10 12:01N 45°38' E 013°46'0 0.0
2017-Aug-10 11:31N 45°38' E 013°46'0 0.0
2017-Aug-10 11:00N 45°38' E 013°46'0 0.0
2017-Aug-10 10:31N 45°38' E 013°46'0 0.0
2017-Aug-10 10:00N 45°38' E 013°46'0 0.0
2017-Aug-10 09:31N 45°38' E 013°46'0 0.0
2017-Aug-10 09:01N 45°38' E 013°46'0 0.0
2017-Aug-10 08:30N 45°38' E 013°46'0 0.0
2017-Aug-10 07:54N 45°38' E 013°46'0 0.0
2017-Aug-10 07:24N 45°38' E 013°46'0 0.0
2017-Aug-10 06:52N 45°38' E 013°46'0 0.0
2017-Aug-10 06:30N 45°38' E 013°46'0 0.0
2017-Aug-10 06:00N 45°38' E 013°46'0 0.0
2017-Aug-10 05:24N 45°38' E 013°46'0 0.0
2017-Aug-10 05:00N 45°38' E 013°46'0 0.0
2017-Aug-10 04:30N 45°38' E 013°46'0 0.0
2017-Aug-10 03:58N 45°38' E 013°46'0 0.0
2017-Aug-10 03:30N 45°38' E 013°46'0 0.0
2017-Aug-10 02:58N 45°38' E 013°46'0 0.0
2017-Aug-10 02:31N 45°38' E 013°46'0 0.0
2017-Aug-10 01:46N 45°38' E 013°46'0 0.0
2017-Aug-10 01:06N 45°38' E 013°46'0 0.0
2017-Aug-10 00:57N 45°38' E 013°46'0 0.0
2017-Aug-10 00:31N 45°38' E 013°46'0 0.0
2017-Aug-10 00:01N 45°38' E 013°46'0 0.0
2017-Aug-09 23:30N 45°38' E 013°46'0 0.0
2017-Aug-09 22:52N 45°38' E 013°46'0 0.0
2017-Aug-09 22:24N 45°38' E 013°46'0 0.0
2017-Aug-09 22:00N 45°38' E 013°46'0 0.0
2017-Aug-09 21:31N 45°38' E 013°46'0 0.0
2017-Aug-09 20:57N 45°38' E 013°46'0 0.0
2017-Aug-09 20:31N 45°38' E 013°46'0 0.0
2017-Aug-09 20:01N 45°38' E 013°46'0 0.0
2017-Aug-09 19:30N 45°38' E 013°46'0 0.0
2017-Aug-09 18:58N 45°38' E 013°46'0 0.0
2017-Aug-09 18:27N 45°38' E 013°46'0 0.0
2017-Aug-09 18:01N 45°38' E 013°46'0 0.0
2017-Aug-09 17:24N 45°38' E 013°46'0 0.8
2017-Aug-09 17:01N 45°38' E 013°45'2 4.6
2017-Aug-09 16:30N 45°39' E 013°43'2 3.2
2017-Aug-09 15:58N 45°40' E 013°41'0 0.0
2017-Aug-09 15:19N 45°40' E 013°41'0 0.0
2017-Aug-09 14:58N 45°40' E 013°41'0 0.0
2017-Aug-09 14:22N 45°40' E 013°41'0 0.0
2017-Aug-09 13:55N 45°40' E 013°41'0 0.0
2017-Aug-09 13:25N 45°40' E 013°41'0 0.0
2017-Aug-09 12:55N 45°40' E 013°41'0 0.0
2017-Aug-09 12:25N 45°40' E 013°41'0 0.1
2017-Aug-09 11:55N 45°40' E 013°41'0 0.1
2017-Aug-09 11:25N 45°40' E 013°41'0 0.0
2017-Aug-09 10:58N 45°40' E 013°41'0 0.1
2017-Aug-09 10:28N 45°40' E 013°41'0 0.0
2017-Aug-09 09:58N 45°40' E 013°41'0 0.0
2017-Aug-09 09:25N 45°40' E 013°41'0 0.0
2017-Aug-09 08:58N 45°40' E 013°41'0 0.0
2017-Aug-09 08:28N 45°40' E 013°41'0 0.1
2017-Aug-09 07:58N 45°40' E 013°41'0 0.0
2017-Aug-09 07:25N 45°40' E 013°41'0 0.0
2017-Aug-09 06:55N 45°40' E 013°41'0 0.0
2017-Aug-09 06:25N 45°40' E 013°41'0 0.0
2017-Aug-09 05:52N 45°40' E 013°41'0 0.0
2017-Aug-09 05:25N 45°40' E 013°41'0 0.0
2017-Aug-09 04:52N 45°40' E 013°41'0 0.0
2017-Aug-09 04:28N 45°40' E 013°41'0 0.1
2017-Aug-09 03:55N 45°40' E 013°41'0 0.1
2017-Aug-09 03:28N 45°40' E 013°41'0 0.1
2017-Aug-09 02:58N 45°40' E 013°41'0 0.1
2017-Aug-09 02:25N 45°40' E 013°41'0 0.1
2017-Aug-09 01:55N 45°40' E 013°40'0 0.1
2017-Aug-09 01:28N 45°40' E 013°40'0 0.1
2017-Aug-09 00:58N 45°40' E 013°40'0 0.1
2017-Aug-09 00:28N 45°40' E 013°40'0 0.0
2017-Aug-08 23:55N 45°40' E 013°40'0 0.0
2017-Aug-08 23:28N 45°40' E 013°40'0 0.1
2017-Aug-08 22:59N 45°40' E 013°41'2 4.5
2017-Aug-08 22:31N 45°39' E 013°38'611.0
2017-Aug-08 22:00N 45°34' E 013°42'1 2.0
2017-Aug-08 21:30N 45°33' E 013°43'1 1.0
2017-Aug-08 21:00N 45°33' E 013°44'0 0.0
2017-Aug-08 20:30N 45°33' E 013°44'0 0.0
2017-Aug-08 20:00N 45°33' E 013°44'0 0.0
2017-Aug-08 19:30N 45°33' E 013°44'0 0.0
2017-Aug-08 18:57N 45°33' E 013°44'0 0.0
2017-Aug-08 18:30N 45°33' E 013°44'0 0.0
2017-Aug-08 18:00N 45°33' E 013°44'0 0.0
2017-Aug-08 17:30N 45°33' E 013°44'0 0.0
2017-Aug-08 17:00N 45°33' E 013°44'0 0.0
2017-Aug-08 16:24N 45°33' E 013°44'0 0.0
2017-Aug-08 16:00N 45°33' E 013°44'0 0.0
2017-Aug-08 15:30N 45°33' E 013°44'0 0.0
2017-Aug-08 14:54N 45°33' E 013°44'0 0.0
2017-Aug-08 14:30N 45°33' E 013°44'0 0.0
2017-Aug-08 14:00N 45°33' E 013°44'0 0.0
2017-Aug-08 13:27N 45°33' E 013°44'0 0.0
2017-Aug-08 13:00N 45°33' E 013°44'0 0.0
2017-Aug-08 12:30N 45°33' E 013°44'0 0.0
2017-Aug-08 12:00N 45°33' E 013°44'0 0.0
2017-Aug-08 11:30N 45°33' E 013°44'0 0.0
2017-Aug-08 10:54N 45°33' E 013°44'0 0.0
2017-Aug-08 10:24N 45°33' E 013°44'0 0.0
2017-Aug-08 10:00N 45°33' E 013°44'0 0.0
2017-Aug-08 09:27N 45°33' E 013°44'0 0.0
2017-Aug-08 09:00N 45°33' E 013°44'0 0.0
2017-Aug-08 08:30N 45°33' E 013°44'0 0.0
2017-Aug-08 07:51N 45°33' E 013°44'0 0.0
2017-Aug-08 07:30N 45°33' E 013°44'0 0.0
2017-Aug-08 07:00N 45°33' E 013°44'0 0.0
2017-Aug-08 06:27N 45°33' E 013°44'0 0.0
2017-Aug-08 05:57N 45°33' E 013°44'0 0.0
2017-Aug-08 05:27N 45°33' E 013°44'0 0.0
2017-Aug-08 05:00N 45°33' E 013°44'0 0.0
2017-Aug-08 04:30N 45°33' E 013°44'0 0.0
2017-Aug-08 04:00N 45°33' E 013°44'0 0.0
2017-Aug-08 03:27N 45°33' E 013°44'0 0.0
2017-Aug-08 02:57N 45°33' E 013°44'0 0.0
2017-Aug-08 02:30N 45°33' E 013°44'0 0.0
2017-Aug-08 01:48N 45°33' E 013°44'0 0.0
2017-Aug-08 01:27N 45°33' E 013°44'0 0.0
2017-Aug-08 00:57N 45°33' E 013°44'0 0.0
2017-Aug-08 00:27N 45°33' E 013°44'0 0.0
2017-Aug-08 00:00N 45°33' E 013°44'0 0.0
2017-Aug-07 23:30N 45°33' E 013°44'0 0.0
2017-Aug-07 23:00N 45°33' E 013°44'0 0.0
2017-Aug-07 22:27N 45°33' E 013°44'0 0.0
2017-Aug-07 21:57N 45°33' E 013°44'0 0.0
2017-Aug-07 21:30N 45°33' E 013°44'0 0.0
2017-Aug-07 21:00N 45°33' E 013°44'0 0.0
2017-Aug-07 20:30N 45°33' E 013°44'0 0.0
2017-Aug-07 20:00N 45°33' E 013°44'0 0.0
2017-Aug-07 19:30N 45°33' E 013°44'0 0.0
2017-Aug-07 19:00N 45°33' E 013°44'0 0.0
2017-Aug-07 18:30N 45°33' E 013°44'0 0.0
2017-Aug-07 18:00N 45°33' E 013°44'0 0.0
2017-Aug-07 17:30N 45°33' E 013°44'0 0.0
2017-Aug-07 17:00N 45°33' E 013°44'0 0.0
2017-Aug-07 16:24N 45°33' E 013°44'0 0.0
2017-Aug-07 16:00N 45°33' E 013°44'0 0.0
2017-Aug-07 15:30N 45°33' E 013°44'0 0.0
2017-Aug-07 15:00N 45°33' E 013°44'0 0.0
2017-Aug-07 14:27N 45°33' E 013°44'0 0.0
2017-Aug-07 13:57N 45°33' E 013°44'0 0.0
2017-Aug-07 13:30N 45°33' E 013°44'0 0.0
2017-Aug-07 13:00N 45°33' E 013°44'0 0.0
2017-Aug-07 12:30N 45°33' E 013°44'0 0.0
2017-Aug-07 12:00N 45°33' E 013°44'0 0.0
2017-Aug-07 11:30N 45°33' E 013°44'0 0.0
2017-Aug-07 11:00N 45°33' E 013°44'0 0.0
2017-Aug-07 10:30N 45°33' E 013°44'0 0.0
2017-Aug-07 09:54N 45°33' E 013°44'0 0.0
2017-Aug-07 09:24N 45°33' E 013°44'0 0.0
2017-Aug-07 09:00N 45°33' E 013°44'0 0.0
2017-Aug-07 08:24N 45°33' E 013°44'0 0.0
2017-Aug-07 07:57N 45°33' E 013°44'0 0.0
2017-Aug-07 07:24N 45°33' E 013°44'0 0.0
2017-Aug-07 06:57N 45°33' E 013°44'0 0.0
2017-Aug-07 06:30N 45°33' E 013°44'0 0.0
2017-Aug-07 05:57N 45°33' E 013°44'0 0.0
2017-Aug-07 05:27N 45°33' E 013°44'0 0.0
2017-Aug-07 04:57N 45°33' E 013°44'0 0.0
2017-Aug-07 04:31N 45°33' E 013°44'1 2.8
2017-Aug-07 04:00N 45°34' E 013°42'1 1.7
2017-Aug-07 03:31N 45°34' E 013°41'2 3.9
2017-Aug-07 03:00N 45°34' E 013°38'  
Track history (hours):
 
Tides and Currents Weather Stations Pressure Air Temp Water Temp Dewpoint Dewpoint Depression Visibility Wind Speed Wind Dir Waves Ship Positions

Gerd Maersk

Last reported at 2017-Aug-17 02:36 UTC. Time now 2017-Aug-19 03:43 UTC.
Position N 35°16' E 022°25'.

Length 367 m; draft 14 m.

Type: Ship (hazmat cat A). MMSI: 220415000.

Date/timePositionNaut miles runAvg speedWind from/ knotsBaromVisibWave heightAir tempDewpointWater temp
2017-Aug-17 02:36N 35°16' E 022°25'32715.3
2017-Aug-16 05:11N 37°32' E 016°16'1619.2
2017-Aug-16 04:21N 37°39' E 015°57'719.1
2017-Aug-16 03:58N 37°43' E 015°50'919.2
2017-Aug-16 03:29N 37°48' E 015°40'918.7
2017-Aug-16 03:00N 37°55' E 015°33'918.5
2017-Aug-16 02:30N 38°05' E 015°34'816.1
2017-Aug-16 02:00N 38°12' E 015°36'817.0
2017-Aug-16 01:30N 38°19' E 015°42'816.8
2017-Aug-16 01:00N 38°26' E 015°49'4 7.6
2017-Aug-16 00:29N 38°27' E 015°54'1 2.2
2017-Aug-15 23:56N 38°28' E 015°55'0 0.0
2017-Aug-15 23:29N 38°28' E 015°55'0 0.0
2017-Aug-15 22:56N 38°28' E 015°55'0 0.0
2017-Aug-15 22:20N 38°28' E 015°55'0 0.0
2017-Aug-15 21:50N 38°28' E 015°55'0 0.0
2017-Aug-15 21:26N 38°28' E 015°55'0 0.0
2017-Aug-15 20:56N 38°28' E 015°55'0 0.0
2017-Aug-15 20:23N 38°28' E 015°55'0 0.0
2017-Aug-15 19:53N 38°28' E 015°55'0 0.0
2017-Aug-15 19:23N 38°28' E 015°55'0 0.0
2017-Aug-15 18:56N 38°28' E 015°55'0 0.0
2017-Aug-15 17:23N 38°28' E 015°55'0 0.0
2017-Aug-15 16:59N 38°28' E 015°55'0 0.0
2017-Aug-15 16:29N 38°28' E 015°55'0 0.0
2017-Aug-15 15:56N 38°28' E 015°55'0 0.0
2017-Aug-15 15:20N 38°28' E 015°55'0 0.0
2017-Aug-15 14:59N 38°28' E 015°55'0 0.0
2017-Aug-15 14:23N 38°28' E 015°55'0 0.0
2017-Aug-15 13:56N 38°28' E 015°55'0 0.0
2017-Aug-15 13:11N 38°28' E 015°55'0 0.0
2017-Aug-15 12:50N 38°28' E 015°55'0 0.0
2017-Aug-15 12:23N 38°28' E 015°55'0 0.0
2017-Aug-15 11:41N 38°28' E 015°55'0 0.0
2017-Aug-15 11:26N 38°28' E 015°55'0 0.0
2017-Aug-15 10:56N 38°28' E 015°55'0 0.0
2017-Aug-15 10:26N 38°28' E 015°55'1 1.9
2017-Aug-15 10:00N 38°27' E 015°54'1 2.7
2017-Aug-15 09:30N 38°27' E 015°52'1 2.7
2017-Aug-15 09:00N 38°28' E 015°51'0 0.7
2017-Aug-15 08:30N 38°28' E 015°51'1 1.3
2017-Aug-15 08:00N 38°27' E 015°51'4 8.6
2017-Aug-15 07:30N 38°24' E 015°48'5 9.1
2017-Aug-15 07:00N 38°20' E 015°45'611.6
2017-Aug-15 06:30N 38°15' E 015°40'713.5
2017-Aug-15 06:01N 38°09' E 015°37'510.9
2017-Aug-15 05:30N 38°04' E 015°35'510.0
2017-Aug-15 05:00N 37°59' E 015°36'510.3
2017-Aug-15 04:30N 37°54' E 015°39'611.4
2017-Aug-15 04:00N 37°51' E 015°45'611.1
2017-Aug-15 03:30N 37°51' E 015°52'611.5
2017-Aug-15 02:57N 37°51' E 015°60'40211.0
2017-Aug-13 14:26N 44°24' E 014°12'715.6
2017-Aug-13 14:01N 44°31' E 014°09'816.3
2017-Aug-13 13:30N 44°39' E 014°09'815.7
2017-Aug-13 13:00N 44°47' E 014°09'3014.8
2017-Aug-13 10:58N 45°16' E 014°22'22 1.1
2017-Aug-12 15:29N 44°55' E 014°12'816.8
2017-Aug-12 15:00N 44°48' E 014°06'816.7
2017-Aug-12 14:30N 44°42' E 013°58'917.0
2017-Aug-12 14:00N 44°44' E 013°46'917.9
2017-Aug-12 13:30N 44°50' E 013°38'917.6
2017-Aug-12 13:00N 44°56' E 013°29'917.2
2017-Aug-12 12:30N 45°01' E 013°19'816.9
2017-Aug-12 12:00N 45°05' E 013°08'916.8
2017-Aug-12 11:29N 45°14' E 013°05'817.1
2017-Aug-12 11:00N 45°21' E 013°02'815.6
2017-Aug-12 10:31N 45°29' E 013°06'714.4
2017-Aug-12 10:00N 45°32' E 013°15'714.2
2017-Aug-12 09:30N 45°35' E 013°24'714.2
2017-Aug-12 09:00N 45°38' E 013°33'612.1
2017-Aug-12 08:30N 45°39' E 013°42'3 4.8
2017-Aug-12 07:52N 45°38' E 013°46'0 0.0
2017-Aug-12 07:30N 45°38' E 013°46'0 0.0
2017-Aug-12 07:00N 45°38' E 013°46'0 0.0
2017-Aug-12 06:31N 45°38' E 013°46'0 0.0
2017-Aug-12 06:01N 45°38' E 013°46'0 0.0
2017-Aug-12 05:31N 45°38' E 013°46'0 0.0
2017-Aug-12 04:54N 45°38' E 013°46'0 0.0
2017-Aug-12 04:25N 45°38' E 013°46'0 0.0
2017-Aug-12 03:58N 45°38' E 013°46'0 0.0
2017-Aug-12 03:30N 45°38' E 013°46'0 0.0
2017-Aug-12 03:01N 45°38' E 013°46'0 0.0
2017-Aug-12 02:27N 45°38' E 013°46'0 0.0
2017-Aug-12 02:00N 45°38' E 013°46'0 0.0
2017-Aug-12 01:31N 45°38' E 013°46'0 0.0
2017-Aug-12 01:00N 45°38' E 013°46'0 0.0
2017-Aug-12 00:31N 45°38' E 013°46'0 0.0
2017-Aug-11 23:54N 45°38' E 013°46'0 0.0
2017-Aug-11 23:31N 45°38' E 013°46'0 0.0
2017-Aug-11 22:49N 45°38' E 013°46'0 0.0
2017-Aug-11 22:25N 45°38' E 013°46'0 0.0
2017-Aug-11 21:57N 45°38' E 013°46'0 0.0
2017-Aug-11 21:31N 45°38' E 013°46'0 0.0
2017-Aug-11 21:01N 45°38' E 013°46'0 0.0
2017-Aug-11 20:30N 45°38' E 013°46'0 0.0
2017-Aug-11 20:00N 45°38' E 013°46'0 0.0
2017-Aug-11 19:30N 45°38' E 013°46'0 0.0
2017-Aug-11 19:00N 45°38' E 013°46'0 0.0
2017-Aug-11 18:31N 45°38' E 013°46'0 0.0
2017-Aug-11 17:55N 45°38' E 013°46'0 0.0
2017-Aug-11 17:22N 45°38' E 013°46'0 0.0
2017-Aug-11 16:57N 45°38' E 013°46'0 0.0
2017-Aug-11 16:28N 45°38' E 013°46'0 0.0
2017-Aug-11 15:57N 45°38' E 013°46'0 0.0
2017-Aug-11 15:30N 45°38' E 013°46'0 0.0
2017-Aug-11 15:01N 45°38' E 013°46'0 0.0
2017-Aug-11 14:00N 45°38' E 013°46'0 0.0
2017-Aug-11 13:30N 45°38' E 013°46'0 0.0
2017-Aug-11 13:00N 45°38' E 013°46'0 0.0
2017-Aug-11 12:27N 45°38' E 013°46'0 0.0
2017-Aug-11 12:01N 45°38' E 013°46'0 0.0
2017-Aug-11 11:31N 45°38' E 013°46'0 0.0
2017-Aug-11 11:01N 45°38' E 013°46'0 0.0
2017-Aug-11 10:31N 45°38' E 013°46'0 0.0
2017-Aug-11 10:00N 45°38' E 013°46'0 0.0
2017-Aug-11 09:31N 45°38' E 013°46'0 0.0
2017-Aug-11 09:01N 45°38' E 013°46'0 0.0
2017-Aug-11 08:30N 45°38' E 013°46'0 0.0
2017-Aug-11 07:57N 45°38' E 013°46'0 0.0
2017-Aug-11 07:31N 45°38' E 013°46'0 0.0
2017-Aug-11 06:58N 45°38' E 013°46'0 0.0
2017-Aug-11 06:30N 45°38' E 013°46'0 0.0
2017-Aug-11 06:01N 45°38' E 013°46'0 0.0
2017-Aug-11 05:25N 45°38' E 013°46'0 0.0
2017-Aug-11 05:01N 45°38' E 013°46'0 0.0
2017-Aug-11 04:28N 45°38' E 013°46'0 0.0
2017-Aug-11 04:00N 45°38' E 013°46'0 0.0
2017-Aug-11 03:30N 45°38' E 013°46'0 0.0
2017-Aug-11 03:00N 45°38' E 013°46'0 0.0
2017-Aug-11 02:28N 45°38' E 013°46'0 0.0
2017-Aug-11 01:58N 45°38' E 013°46'0 0.0
2017-Aug-11 01:30N 45°38' E 013°46'0 0.0
2017-Aug-11 01:00N 45°38' E 013°46'0 0.0
2017-Aug-11 00:21N 45°38' E 013°46'0 0.0
2017-Aug-11 00:00N 45°38' E 013°46'0 0.0
2017-Aug-10 23:28N 45°38' E 013°46'0 0.0
2017-Aug-10 22:57N 45°38' E 013°46'0 0.0
2017-Aug-10 22:31N 45°38' E 013°46'0 0.0
2017-Aug-10 22:01N 45°38' E 013°46'0 0.0
2017-Aug-10 21:30N 45°38' E 013°46'0 0.0
2017-Aug-10 20:58N 45°38' E 013°46'0 0.0
2017-Aug-10 20:31N 45°38' E 013°46'0 0.0
2017-Aug-10 20:00N 45°38' E 013°46'0 0.0
2017-Aug-10 19:31N 45°38' E 013°46'0 0.0
2017-Aug-10 19:00N 45°38' E 013°46'0 0.0
2017-Aug-10 18:27N 45°38' E 013°46'0 0.0
2017-Aug-10 17:51N 45°38' E 013°46'0 0.0
2017-Aug-10 17:12N 45°38' E 013°46'0 0.0
2017-Aug-10 17:01N 45°38' E 013°46'0 0.0
2017-Aug-10 16:09N 45°38' E 013°46'0 0.0
2017-Aug-10 15:40N 45°38' E 013°46'0 0.0
2017-Aug-10 15:31N 45°38' E 013°46'0 0.0
2017-Aug-10 14:58N 45°38' E 013°46'0 0.0
2017-Aug-10 14:27N 45°38' E 013°46'0 0.0
2017-Aug-10 13:42N 45°38' E 013°46'0 0.0
2017-Aug-10 13:30N 45°38' E 013°46'0 0.0
2017-Aug-10 13:01N 45°38' E 013°46'0 0.0
2017-Aug-10 12:31N 45°38' E 013°46'0 0.0
2017-Aug-10 12:01N 45°38' E 013°46'0 0.0
2017-Aug-10 11:31N 45°38' E 013°46'0 0.0
2017-Aug-10 11:00N 45°38' E 013°46'0 0.0
2017-Aug-10 10:31N 45°38' E 013°46'0 0.0
2017-Aug-10 10:00N 45°38' E 013°46'0 0.0
2017-Aug-10 09:31N 45°38' E 013°46'0 0.0
2017-Aug-10 09:01N 45°38' E 013°46'0 0.0
2017-Aug-10 08:30N 45°38' E 013°46'0 0.0
2017-Aug-10 07:54N 45°38' E 013°46'0 0.0
2017-Aug-10 07:24N 45°38' E 013°46'0 0.0
2017-Aug-10 06:52N 45°38' E 013°46'0 0.0
2017-Aug-10 06:30N 45°38' E 013°46'0 0.0
2017-Aug-10 06:00N 45°38' E 013°46'0 0.0
2017-Aug-10 05:24N 45°38' E 013°46'0 0.0
2017-Aug-10 05:00N 45°38' E 013°46'0 0.0
2017-Aug-10 04:30N 45°38' E 013°46'0 0.0
2017-Aug-10 03:58N 45°38' E 013°46'0 0.0
2017-Aug-10 03:30N 45°38' E 013°46'0 0.0
2017-Aug-10 02:58N 45°38' E 013°46'0 0.0
2017-Aug-10 02:31N 45°38' E 013°46'0 0.0
2017-Aug-10 01:46N 45°38' E 013°46'0 0.0
2017-Aug-10 01:06N 45°38' E 013°46'0 0.0
2017-Aug-10 00:57N 45°38' E 013°46'0 0.0
2017-Aug-10 00:31N 45°38' E 013°46'0 0.0
2017-Aug-10 00:01N 45°38' E 013°46'0 0.0
2017-Aug-09 23:30N 45°38' E 013°46'0 0.0
2017-Aug-09 22:52N 45°38' E 013°46'0 0.0
2017-Aug-09 22:24N 45°38' E 013°46'0 0.0
2017-Aug-09 22:00N 45°38' E 013°46'0 0.0
2017-Aug-09 21:31N 45°38' E 013°46'0 0.0
2017-Aug-09 20:57N 45°38' E 013°46'0 0.0
2017-Aug-09 20:31N 45°38' E 013°46'0 0.0
2017-Aug-09 20:01N 45°38' E 013°46'0 0.0
2017-Aug-09 19:30N 45°38' E 013°46'0 0.0
2017-Aug-09 18:58N 45°38' E 013°46'0 0.0
2017-Aug-09 18:27N 45°38' E 013°46'0 0.0
2017-Aug-09 18:01N 45°38' E 013°46'0 0.0
2017-Aug-09 17:24N 45°38' E 013°46'0 0.8
2017-Aug-09 17:01N 45°38' E 013°45'2 4.6
2017-Aug-09 16:30N 45°39' E 013°43'2 3.2
2017-Aug-09 15:58N 45°40' E 013°41'0 0.0
2017-Aug-09 15:19N 45°40' E 013°41'0 0.0
2017-Aug-09 14:58N 45°40' E 013°41'0 0.0
2017-Aug-09 14:22N 45°40' E 013°41'0 0.0
2017-Aug-09 13:55N 45°40' E 013°41'0 0.0
2017-Aug-09 13:25N 45°40' E 013°41'0 0.0
2017-Aug-09 12:55N 45°40' E 013°41'0 0.0
2017-Aug-09 12:25N 45°40' E 013°41'0 0.1
2017-Aug-09 11:55N 45°40' E 013°41'0 0.1
2017-Aug-09 11:25N 45°40' E 013°41'0 0.0
2017-Aug-09 10:58N 45°40' E 013°41'0 0.1
2017-Aug-09 10:28N 45°40' E 013°41'0 0.0
2017-Aug-09 09:58N 45°40' E 013°41'0 0.0
2017-Aug-09 09:25N 45°40' E 013°41'0 0.0
2017-Aug-09 08:58N 45°40' E 013°41'0 0.0
2017-Aug-09 08:28N 45°40' E 013°41'0 0.1
2017-Aug-09 07:58N 45°40' E 013°41'0 0.0
2017-Aug-09 07:25N 45°40' E 013°41'0 0.0
2017-Aug-09 06:55N 45°40' E 013°41'0 0.0
2017-Aug-09 06:25N 45°40' E 013°41'0 0.0
2017-Aug-09 05:52N 45°40' E 013°41'0 0.0
2017-Aug-09 05:25N 45°40' E 013°41'0 0.0
2017-Aug-09 04:52N 45°40' E 013°41'0 0.0
2017-Aug-09 04:28N 45°40' E 013°41'0 0.1
2017-Aug-09 03:55N 45°40' E 013°41'0 0.1
2017-Aug-09 03:28N 45°40' E 013°41'0 0.1
2017-Aug-09 02:58N 45°40' E 013°41'0 0.1
2017-Aug-09 02:25N 45°40' E 013°41'0 0.1
2017-Aug-09 01:55N 45°40' E 013°40'0 0.1
2017-Aug-09 01:28N 45°40' E 013°40'0 0.1
2017-Aug-09 00:58N 45°40' E 013°40'0 0.1
2017-Aug-09 00:28N 45°40' E 013°40'0 0.0
2017-Aug-08 23:55N 45°40' E 013°40'0 0.0
2017-Aug-08 23:28N 45°40' E 013°40'0 0.1
2017-Aug-08 22:59N 45°40' E 013°41'2 4.5
2017-Aug-08 22:31N 45°39' E 013°38'611.0
2017-Aug-08 22:00N 45°34' E 013°42'1 2.0
2017-Aug-08 21:30N 45°33' E 013°43'1 1.0
2017-Aug-08 21:00N 45°33' E 013°44'0 0.0
2017-Aug-08 20:30N 45°33' E 013°44'0 0.0
2017-Aug-08 20:00N 45°33' E 013°44'0 0.0
2017-Aug-08 19:30N 45°33' E 013°44'0 0.0
2017-Aug-08 18:57N 45°33' E 013°44'0 0.0
2017-Aug-08 18:30N 45°33' E 013°44'0 0.0
2017-Aug-08 18:00N 45°33' E 013°44'0 0.0
2017-Aug-08 17:30N 45°33' E 013°44'0 0.0
2017-Aug-08 17:00N 45°33' E 013°44'0 0.0
2017-Aug-08 16:24N 45°33' E 013°44'0 0.0
2017-Aug-08 16:00N 45°33' E 013°44'0 0.0
2017-Aug-08 15:30N 45°33' E 013°44'0 0.0
2017-Aug-08 14:54N 45°33' E 013°44'0 0.0
2017-Aug-08 14:30N 45°33' E 013°44'0 0.0
2017-Aug-08 14:00N 45°33' E 013°44'0 0.0
2017-Aug-08 13:27N 45°33' E 013°44'0 0.0
2017-Aug-08 13:00N 45°33' E 013°44'0 0.0
2017-Aug-08 12:30N 45°33' E 013°44'0 0.0
2017-Aug-08 12:00N 45°33' E 013°44'0 0.0
2017-Aug-08 11:30N 45°33' E 013°44'0 0.0
2017-Aug-08 10:54N 45°33' E 013°44'0 0.0
2017-Aug-08 10:24N 45°33' E 013°44'0 0.0
2017-Aug-08 10:00N 45°33' E 013°44'0 0.0
2017-Aug-08 09:27N 45°33' E 013°44'0 0.0
2017-Aug-08 09:00N 45°33' E 013°44'0 0.0
2017-Aug-08 08:30N 45°33' E 013°44'0 0.0
2017-Aug-08 07:51N 45°33' E 013°44'0 0.0
2017-Aug-08 07:30N 45°33' E 013°44'0 0.0
2017-Aug-08 07:00N 45°33' E 013°44'0 0.0
2017-Aug-08 06:27N 45°33' E 013°44'0 0.0
2017-Aug-08 05:57N 45°33' E 013°44'0 0.0
2017-Aug-08 05:27N 45°33' E 013°44'0 0.0
2017-Aug-08 05:00N 45°33' E 013°44'0 0.0
2017-Aug-08 04:30N 45°33' E 013°44'0 0.0
2017-Aug-08 04:00N 45°33' E 013°44'0 0.0
2017-Aug-08 03:27N 45°33' E 013°44'0 0.0
2017-Aug-08 02:57N 45°33' E 013°44'0 0.0
2017-Aug-08 02:30N 45°33' E 013°44'0 0.0
2017-Aug-08 01:48N 45°33' E 013°44'0 0.0
2017-Aug-08 01:27N 45°33' E 013°44'0 0.0
2017-Aug-08 00:57N 45°33' E 013°44'0 0.0
2017-Aug-08 00:27N 45°33' E 013°44'0 0.0
2017-Aug-08 00:00N 45°33' E 013°44'0 0.0
2017-Aug-07 23:30N 45°33' E 013°44'0 0.0
2017-Aug-07 23:00N 45°33' E 013°44'0 0.0
2017-Aug-07 22:27N 45°33' E 013°44'0 0.0
2017-Aug-07 21:57N 45°33' E 013°44'0 0.0
2017-Aug-07 21:30N 45°33' E 013°44'0 0.0
2017-Aug-07 21:00N 45°33' E 013°44'0 0.0
2017-Aug-07 20:30N 45°33' E 013°44'0 0.0
2017-Aug-07 20:00N 45°33' E 013°44'0 0.0
2017-Aug-07 19:30N 45°33' E 013°44'0 0.0
2017-Aug-07 19:00N 45°33' E 013°44'0 0.0
2017-Aug-07 18:30N 45°33' E 013°44'0 0.0
2017-Aug-07 18:00N 45°33' E 013°44'0 0.0
2017-Aug-07 17:30N 45°33' E 013°44'0 0.0
2017-Aug-07 17:00N 45°33' E 013°44'0 0.0
2017-Aug-07 16:24N 45°33' E 013°44'0 0.0
2017-Aug-07 16:00N 45°33' E 013°44'0 0.0
2017-Aug-07 15:30N 45°33' E 013°44'0 0.0
2017-Aug-07 15:00N 45°33' E 013°44'0 0.0
2017-Aug-07 14:27N 45°33' E 013°44'0 0.0
2017-Aug-07 13:57N 45°33' E 013°44'0 0.0
2017-Aug-07 13:30N 45°33' E 013°44'0 0.0
2017-Aug-07 13:00N 45°33' E 013°44'0 0.0
2017-Aug-07 12:30N 45°33' E 013°44'0 0.0
2017-Aug-07 12:00N 45°33' E 013°44'0 0.0
2017-Aug-07 11:30N 45°33' E 013°44'0 0.0
2017-Aug-07 11:00N 45°33' E 013°44'0 0.0
2017-Aug-07 10:30N 45°33' E 013°44'0 0.0
2017-Aug-07 09:54N 45°33' E 013°44'0 0.0
2017-Aug-07 09:24N 45°33' E 013°44'0 0.0
2017-Aug-07 09:00N 45°33' E 013°44'0 0.0
2017-Aug-07 08:24N 45°33' E 013°44'0 0.0
2017-Aug-07 07:57N 45°33' E 013°44'0 0.0
2017-Aug-07 07:24N 45°33' E 013°44'0 0.0
2017-Aug-07 06:57N 45°33' E 013°44'0 0.0
2017-Aug-07 06:30N 45°33' E 013°44'0 0.0
2017-Aug-07 05:57N 45°33' E 013°44'0 0.0
2017-Aug-07 05:27N 45°33' E 013°44'0 0.0
2017-Aug-07 04:57N 45°33' E 013°44'0 0.0
2017-Aug-07 04:31N 45°33' E 013°44'1 2.8
2017-Aug-07 04:00N 45°34' E 013°42'1 1.7
2017-Aug-07 03:31N 45°34' E 013°41'2 3.9
2017-Aug-07 03:00N 45°34' E 013°38'  

Dump ship's entire track history